createdAt,value
2018-02-03T00:03:02.455Z,6.23
2018-02-03T00:08:05.743Z,7.20
2018-02-03T00:13:08.370Z,6.50
2018-02-03T00:18:11.234Z,7.07
2018-02-03T00:23:13.920Z,7.80
2018-02-03T00:28:17.751Z,8.73
2018-02-03T00:33:20.421Z,8.07
2018-02-03T00:38:24.502Z,7.63
2018-02-03T00:43:27.170Z,8.13
2018-02-03T00:48:31.001Z,8.30
2018-02-03T00:53:33.642Z,8.97
2018-02-03T00:58:37.007Z,8.97
2018-02-03T01:03:40.393Z,7.93
2018-02-03T01:08:43.890Z,9.93
2018-02-03T01:13:46.583Z,10.93
2018-02-03T01:18:49.890Z,8.27
2018-02-03T01:23:53.402Z,9.77
2018-02-03T01:28:56.801Z,11.47
2018-02-03T01:34:00.276Z,11.37
2018-02-03T01:39:04.059Z,12.10
2018-02-03T01:44:06.677Z,11.47
2018-02-03T01:49:09.655Z,11.60
2018-02-03T01:54:13.034Z,13.27
2018-02-03T01:59:16.463Z,11.80
2018-02-03T02:04:19.120Z,11.43
2018-02-03T02:09:22.593Z,14.63
2018-02-03T02:14:26.132Z,11.03
2018-02-03T02:19:29.207Z,12.60
2018-02-03T02:24:31.849Z,11.80
2018-02-03T02:29:35.128Z,12.17
2018-02-03T02:34:38.564Z,12.17
2018-02-03T02:39:42.571Z,14.83
2018-02-03T02:44:46.012Z,13.77
2018-02-03T02:49:49.769Z,12.60
2018-02-03T02:54:52.407Z,13.67
2018-02-03T02:59:55.939Z,12.77
2018-02-03T03:04:58.592Z,13.90
2018-02-03T03:10:01.462Z,12.83
2018-02-03T03:15:04.917Z,12.27
2018-02-03T03:20:08.531Z,15.50
2018-02-03T03:25:11.406Z,14.10
2018-02-03T03:30:15.133Z,11.07
2018-02-03T03:35:17.793Z,11.80
2018-02-03T03:40:21.172Z,15.93
2018-02-03T03:45:23.917Z,13.07
2018-02-03T03:50:27.224Z,12.63
2018-02-03T03:55:30.015Z,14.10
2018-02-03T04:00:33.714Z,13.93
2018-02-03T04:05:36.375Z,16.07
2018-02-03T04:10:40.075Z,17.03
2018-02-03T04:15:42.667Z,20.73
2018-02-03T04:20:45.825Z,18.13
2018-02-03T04:25:48.458Z,18.43
2018-02-03T04:30:51.203Z,18.77
2018-02-03T04:35:54.593Z,19.67
2018-02-03T04:40:57.673Z,19.17
2018-02-03T04:46:00.289Z,20.80
2018-02-03T04:51:02.985Z,20.97
2018-02-03T04:56:05.618Z,20.47
2018-02-03T05:01:08.700Z,22.60
2018-02-03T05:06:11.330Z,24.30
2018-02-03T05:11:15.591Z,22.73
2018-02-03T05:16:18.995Z,24.83
2018-02-03T05:21:22.934Z,25.53
2018-02-03T05:26:26.332Z,27.23
2018-02-03T05:31:29.046Z,19.73
2018-02-03T05:36:32.580Z,26.57
2018-02-03T05:41:35.586Z,26.43
2018-02-03T05:46:38.277Z,25.10
2018-02-03T05:51:42.723Z,22.53
2018-02-03T05:56:46.177Z,21.57
2018-02-03T06:01:49.556Z,26.20
2018-02-03T06:06:52.151Z,23.13
2018-02-03T06:11:56.275Z,25.13
2018-02-03T06:16:59.661Z,26.03
2018-02-03T06:22:02.763Z,19.63
2018-02-03T06:27:05.590Z,23.97
2018-02-03T06:32:09.094Z,22.50
2018-02-03T06:37:12.563Z,23.40
2018-02-03T06:42:15.555Z,23.47
2018-02-03T06:47:18.962Z,22.70
2018-02-03T06:52:22.446Z,24.50
2018-02-03T06:57:25.067Z,20.97
2018-02-03T07:02:28.551Z,22.10
2018-02-03T07:07:31.178Z,19.20
2018-02-03T07:12:33.842Z,21.03
2018-02-03T07:17:36.614Z,22.10
2018-02-03T07:22:40.533Z,21.20
2018-02-03T07:27:43.940Z,22.27
2018-02-03T07:32:48.074Z,21.47
2018-02-03T07:37:50.671Z,22.27
2018-02-03T07:42:54.451Z,19.57
2018-02-03T07:47:57.065Z,19.57
2018-02-03T07:53:00.226Z,20.67
2018-02-03T07:58:03.610Z,19.93
2018-02-03T08:03:06.992Z,21.30
2018-02-03T08:08:09.632Z,20.57
2018-02-03T08:13:12.298Z,21.53
2018-02-03T08:18:14.931Z,21.17
2018-02-03T08:23:18.565Z,21.43
2018-02-03T08:28:21.970Z,18.83
2018-02-03T08:33:25.557Z,18.80
2018-02-03T08:38:28.203Z,20.77
2018-02-03T08:43:31.743Z,18.80
2018-02-03T08:48:34.371Z,16.90
2018-02-03T08:53:37.852Z,19.93
2018-02-03T08:58:41.246Z,21.57
2018-02-03T09:03:45.399Z,19.40
2018-02-03T09:08:48.801Z,18.67
2018-02-03T09:13:52.351Z,21.13
2018-02-03T09:18:55.015Z,22.57
2018-02-03T09:23:58.620Z,17.80
2018-02-03T09:29:01.264Z,22.73
2018-02-03T09:34:04.858Z,23.10
2018-02-03T09:39:07.455Z,22.20
2018-02-03T09:44:10.837Z,18.50
2018-02-03T09:49:13.599Z,20.60
2018-02-03T09:54:16.419Z,19.00
2018-02-03T09:59:19.042Z,19.37
2018-02-03T10:04:22.789Z,18.13
2018-02-03T10:09:25.821Z,16.83
2018-02-03T10:14:29.223Z,16.30
2018-02-03T10:19:32.661Z,16.07
2018-02-03T10:24:37.366Z,14.67
2018-02-03T10:29:41.862Z,16.37
2018-02-03T10:34:46.372Z,11.93
2018-02-03T10:39:49.718Z,16.23
2018-02-03T10:44:52.851Z,14.87
2018-02-03T10:49:55.541Z,16.27
2018-02-03T10:54:58.902Z,15.67
2018-02-03T11:00:01.959Z,14.17
2018-02-03T11:05:06.193Z,14.77
2018-02-03T11:10:10.120Z,16.67
2018-02-03T11:15:13.792Z,15.40
2018-02-03T11:20:16.588Z,13.70
2018-02-03T11:25:19.636Z,12.67
2018-02-03T11:30:24.946Z,13.33
2018-02-03T11:35:28.789Z,12.80
2018-02-03T11:40:31.956Z,20.40
2018-02-03T11:45:36.731Z,10.47
2018-02-03T11:50:39.648Z,12.07
2018-02-03T11:55:43.198Z,11.60
2018-02-03T12:00:46.236Z,10.33
2018-02-03T12:05:49.516Z,15.00
2018-02-03T12:10:53.623Z,9.40
2018-02-03T12:15:56.530Z,11.37
2018-02-03T12:20:59.187Z,11.30
2018-02-03T12:26:02.267Z,13.27
2018-02-03T12:31:05.675Z,12.73
2018-02-03T12:36:08.674Z,11.47
2018-02-03T12:41:11.296Z,13.23
2018-02-03T12:46:13.976Z,9.60
2018-02-03T12:51:16.616Z,9.27
2018-02-03T12:56:20.263Z,8.50
2018-02-03T13:01:22.874Z,7.83
2018-02-03T13:06:25.552Z,6.10
2018-02-03T13:11:28.179Z,4.83
2018-02-03T13:16:31.472Z,5.40
2018-02-03T13:21:34.124Z,4.90
2018-02-03T13:26:37.698Z,4.80
2018-02-03T13:31:40.319Z,4.93
2018-02-03T13:36:43.624Z,2.70
2018-02-03T13:41:46.230Z,2.80
2018-02-03T13:46:49.402Z,2.80
2018-02-03T13:51:52.194Z,2.60
2018-02-03T13:56:55.815Z,2.93
2018-02-03T14:01:59.187Z,2.53
2018-02-03T14:07:02.044Z,2.93
2018-02-03T14:12:04.663Z,38.03
2018-02-03T14:17:07.867Z,2.47
2018-02-03T14:22:10.450Z,2.83
2018-02-03T14:27:13.098Z,3.63
2018-02-03T14:32:15.757Z,3.13
2018-02-03T14:37:18.824Z,4.03
2018-02-03T14:42:21.474Z,4.23
2018-02-03T14:47:24.421Z,4.47
2018-02-03T14:52:27.053Z,4.37
2018-02-03T14:57:30.447Z,4.00
2018-02-03T15:02:33.150Z,3.73
2018-02-03T15:07:35.833Z,4.83
2018-02-03T15:12:38.641Z,4.77
2018-02-03T15:17:41.898Z,4.03
2018-02-03T15:22:44.493Z,4.90
2018-02-03T15:27:47.548Z,4.53
2018-02-03T15:32:50.169Z,4.53
2018-02-03T15:37:54.128Z,5.00
2018-02-03T15:42:56.733Z,5.73
2018-02-03T15:47:59.776Z,5.87
2018-02-03T15:53:02.400Z,6.37
2018-02-03T15:58:05.041Z,6.47
2018-02-03T16:03:07.655Z,6.70
2018-02-03T16:08:10.348Z,7.10
2018-02-03T16:13:12.928Z,8.27
2018-02-03T16:18:15.711Z,7.90
2018-02-03T16:23:19.086Z,8.13
2018-02-03T16:28:22.686Z,7.43
2018-02-03T16:33:25.289Z,7.63
2018-02-03T16:38:28.047Z,8.77
2018-02-03T16:43:32.387Z,9.77
2018-02-03T16:48:36.396Z,9.70
2018-02-03T16:53:39.070Z,10.27
2018-02-03T16:58:41.752Z,9.47
2018-02-03T17:03:44.343Z,7.57
2018-02-03T17:08:47.393Z,11.43
2018-02-03T17:13:51.091Z,9.67
2018-02-03T17:18:55.461Z,10.30
2018-02-03T17:23:58.314Z,10.53
2018-02-03T17:29:03.045Z,10.30
2018-02-03T17:34:06.690Z,10.60
2018-02-03T17:39:15.928Z,9.60
2018-02-03T17:44:19.166Z,9.77
2018-02-03T17:49:23.359Z,10.37
2018-02-03T17:54:26.221Z,10.23
2018-02-03T17:59:30.630Z,11.80
2018-02-03T18:04:33.539Z,10.63
2018-02-03T18:09:37.004Z,14.53
2018-02-03T18:14:40.053Z,12.10
2018-02-03T18:19:43.485Z,12.37
2018-02-03T18:24:46.370Z,14.63
2018-02-03T18:29:51.907Z,21.77
2018-02-03T18:34:56.693Z,13.80
2018-02-03T18:40:00.249Z,24.47
2018-02-03T18:45:02.979Z,15.03
2018-02-03T18:50:07.056Z,13.77
2018-02-03T18:55:09.952Z,14.23
2018-02-03T19:00:13.582Z,17.30
2018-02-03T19:05:16.509Z,15.00
2018-02-03T19:10:19.837Z,15.00
2018-02-03T19:15:23.064Z,14.70
2018-02-03T19:20:27.680Z,15.43
2018-02-03T19:25:30.584Z,14.93
2018-02-03T19:30:34.591Z,15.57
2018-02-03T19:35:38.110Z,15.37
2018-02-03T19:40:41.317Z,16.20
2018-02-03T19:45:44.720Z,16.70
2018-02-03T19:50:49.074Z,16.80
2018-02-03T19:55:52.462Z,18.17
2018-02-03T20:00:56.673Z,14.67
2018-02-03T20:05:59.299Z,17.67
2018-02-03T20:11:04.316Z,15.23
2018-02-03T20:16:06.984Z,18.00
2018-02-03T20:21:12.165Z,19.17
2018-02-03T20:26:15.805Z,16.37
2018-02-03T20:31:19.204Z,19.27
2018-02-03T20:36:22.187Z,17.67
2018-02-03T20:41:26.422Z,19.97
2018-02-03T20:46:29.328Z,20.03
2018-02-03T20:51:32.940Z,20.03
2018-02-03T20:56:36.415Z,18.50
2018-02-03T21:01:39.506Z,17.80
2018-02-03T21:06:42.284Z,15.10
2018-02-03T21:11:46.247Z,17.07
2018-02-03T21:16:50.356Z,15.27
2018-02-03T21:21:53.783Z,15.77
2018-02-03T21:26:56.426Z,15.13
2018-02-03T21:32:00.809Z,15.47
2018-02-03T21:37:03.450Z,19.60
2018-02-03T21:42:07.065Z,15.63
2018-02-03T21:47:09.913Z,17.10
2018-02-03T21:52:14.365Z,16.70
2018-02-03T21:57:17.374Z,17.00
2018-02-03T22:02:20.686Z,15.23
2018-02-03T22:07:23.356Z,18.07
2018-02-03T22:12:27.016Z,17.07
2018-02-03T22:17:29.671Z,17.17
2018-02-03T22:22:32.740Z,18.00
2018-02-03T22:27:35.362Z,18.63
2018-02-03T22:32:38.029Z,21.23
2018-02-03T22:37:40.723Z,17.67
2018-02-03T22:42:43.817Z,17.87
2018-02-03T22:47:47.677Z,23.03
2018-02-03T22:52:50.864Z,18.90
2018-02-03T22:57:54.658Z,19.53
2018-02-03T23:02:59.520Z,17.53
2018-02-03T23:08:02.153Z,17.23
2018-02-03T23:13:04.942Z,19.33
2018-02-03T23:18:07.618Z,19.70
2018-02-03T23:23:10.246Z,18.80
2018-02-03T23:28:12.937Z,19.43
2018-02-03T23:33:16.044Z,18.43
2018-02-03T23:38:19.454Z,20.10
2018-02-03T23:43:23.338Z,16.00
2018-02-03T23:48:25.993Z,18.77
2018-02-03T23:53:28.651Z,22.23
2018-02-03T23:58:31.330Z,21.23
